sensor_id;sensor_type;location;lat;lon;timestamp;P1;durP1;ratioP1;P2;durP2;ratioP2
49458;SDS011;35354;51.296;16.924;2023-05-21T00:02:07;19.95;;;17.92;;
49458;SDS011;35354;51.296;16.924;2023-05-21T00:04:36;19.25;;;17.25;;
49458;SDS011;35354;51.296;16.924;2023-05-21T00:07:04;18.77;;;16.83;;
49458;SDS011;35354;51.296;16.924;2023-05-21T00:09:30;18.40;;;16.42;;
49458;SDS011;35354;51.296;16.924;2023-05-21T00:11:56;17.73;;;15.93;;
49458;SDS011;35354;51.296;16.924;2023-05-21T00:14:21;17.52;;;15.40;;
49458;SDS011;35354;51.296;16.924;2023-05-21T00:16:46;17.13;;;15.48;;
49458;SDS011;35354;51.296;16.924;2023-05-21T00:19:12;18.88;;;16.67;;
49458;SDS011;35354;51.296;16.924;2023-05-21T00:21:37;19.38;;;17.38;;
49458;SDS011;35354;51.296;16.924;2023-05-21T00:24:03;17.45;;;15.70;;
49458;SDS011;35354;51.296;16.924;2023-05-21T00:26:29;18.77;;;16.77;;
49458;SDS011;35354;51.296;16.924;2023-05-21T00:28:54;17.63;;;15.82;;
49458;SDS011;35354;51.296;16.924;2023-05-21T00:31:20;17.15;;;15.32;;
49458;SDS011;35354;51.296;16.924;2023-05-21T00:33:45;20.67;;;16.40;;
49458;SDS011;35354;51.296;16.924;2023-05-21T00:36:11;18.38;;;16.38;;
49458;SDS011;35354;51.296;16.924;2023-05-21T00:38:38;19.33;;;17.30;;
49458;SDS011;35354;51.296;16.924;2023-05-21T00:43:35;18.73;;;16.73;;
49458;SDS011;35354;51.296;16.924;2023-05-21T00:46:04;17.10;;;15.38;;
49458;SDS011;35354;51.296;16.924;2023-05-21T00:48:31;19.35;;;16.95;;
49458;SDS011;35354;51.296;16.924;2023-05-21T00:50:56;20.00;;;16.00;;
49458;SDS011;35354;51.296;16.924;2023-05-21T00:53:21;17.15;;;15.25;;
49458;SDS011;35354;51.296;16.924;2023-05-21T00:55:47;19.00;;;17.17;;
49458;SDS011;35354;51.296;16.924;2023-05-21T00:58:14;17.02;;;15.30;;
49458;SDS011;35354;51.296;16.924;2023-05-21T01:00:41;20.00;;;17.70;;
49458;SDS011;35354;51.296;16.924;2023-05-21T01:03:07;19.00;;;16.40;;
49458;SDS011;35354;51.296;16.924;2023-05-21T01:05:33;17.85;;;15.05;;
49458;SDS011;35354;51.296;16.924;2023-05-21T01:07:59;17.88;;;16.08;;
49458;SDS011;35354;51.296;16.924;2023-05-21T01:10:25;18.40;;;15.95;;
49458;SDS011;35354;51.296;16.924;2023-05-21T01:12:51;17.33;;;15.52;;
49458;SDS011;35354;51.296;16.924;2023-05-21T01:15:21;17.02;;;15.32;;
49458;SDS011;35354;51.296;16.924;2023-05-21T01:17:47;21.27;;;16.02;;
49458;SDS011;35354;51.296;16.924;2023-05-21T01:20:13;17.25;;;15.45;;
49458;SDS011;35354;51.296;16.924;2023-05-21T01:22:48;16.55;;;15.00;;
49458;SDS011;35354;51.296;16.924;2023-05-21T01:25:15;18.30;;;15.35;;
49458;SDS011;35354;51.296;16.924;2023-05-21T01:27:41;17.00;;;14.90;;
49458;SDS011;35354;51.296;16.924;2023-05-21T01:30:06;18.38;;;14.82;;
49458;SDS011;35354;51.296;16.924;2023-05-21T01:32:37;14.85;;;13.45;;
49458;SDS011;35354;51.296;16.924;2023-05-21T01:35:16;15.40;;;13.65;;
49458;SDS011;35354;51.296;16.924;2023-05-21T01:38:04;15.18;;;13.57;;
49458;SDS011;35354;51.296;16.924;2023-05-21T01:40:38;15.40;;;13.73;;
49458;SDS011;35354;51.296;16.924;2023-05-21T01:43:04;16.03;;;14.43;;
49458;SDS011;35354;51.296;16.924;2023-05-21T01:45:32;19.90;;;13.85;;
49458;SDS011;35354;51.296;16.924;2023-05-21T01:48:03;15.65;;;13.95;;
49458;SDS011;35354;51.296;16.924;2023-05-21T01:50:30;17.17;;;14.32;;
49458;SDS011;35354;51.296;16.924;2023-05-21T01:52:57;18.13;;;14.20;;
49458;SDS011;35354;51.296;16.924;2023-05-21T01:55:25;16.70;;;14.32;;
49458;SDS011;35354;51.296;16.924;2023-05-21T01:57:52;16.05;;;14.35;;
49458;SDS011;35354;51.296;16.924;2023-05-21T02:00:22;15.35;;;13.73;;
49458;SDS011;35354;51.296;16.924;2023-05-21T02:02:49;16.73;;;13.73;;
49458;SDS011;35354;51.296;16.924;2023-05-21T02:05:15;15.98;;;13.30;;
49458;SDS011;35354;51.296;16.924;2023-05-21T02:07:41;17.15;;;13.15;;
49458;SDS011;35354;51.296;16.924;2023-05-21T02:10:08;14.85;;;13.35;;
49458;SDS011;35354;51.296;16.924;2023-05-21T02:12:34;15.20;;;13.65;;
49458;SDS011;35354;51.296;16.924;2023-05-21T02:14:59;15.45;;;13.85;;
49458;SDS011;35354;51.296;16.924;2023-05-21T02:17:25;14.90;;;13.18;;
49458;SDS011;35354;51.296;16.924;2023-05-21T02:19:50;18.52;;;12.65;;
49458;SDS011;35354;51.296;16.924;2023-05-21T02:22:16;15.13;;;12.43;;
49458;SDS011;35354;51.296;16.924;2023-05-21T02:24:41;14.80;;;13.25;;
49458;SDS011;35354;51.296;16.924;2023-05-21T02:27:07;14.95;;;13.48;;
49458;SDS011;35354;51.296;16.924;2023-05-21T02:29:34;14.88;;;13.27;;
49458;SDS011;35354;51.296;16.924;2023-05-21T02:32:00;14.70;;;13.07;;
49458;SDS011;35354;51.296;16.924;2023-05-21T02:34:25;16.35;;;12.57;;
49458;SDS011;35354;51.296;16.924;2023-05-21T02:36:50;13.90;;;12.50;;
49458;SDS011;35354;51.296;16.924;2023-05-21T02:39:16;14.15;;;12.75;;
49458;SDS011;35354;51.296;16.924;2023-05-21T02:41:44;14.68;;;13.05;;
49458;SDS011;35354;51.296;16.924;2023-05-21T02:44:09;14.52;;;13.02;;
49458;SDS011;35354;51.296;16.924;2023-05-21T02:46:35;15.50;;;13.90;;
49458;SDS011;35354;51.296;16.924;2023-05-21T02:49:00;16.33;;;14.13;;
49458;SDS011;35354;51.296;16.924;2023-05-21T02:51:26;15.38;;;13.85;;
49458;SDS011;35354;51.296;16.924;2023-05-21T02:53:51;14.90;;;13.27;;
49458;SDS011;35354;51.296;16.924;2023-05-21T02:56:16;14.63;;;13.23;;
49458;SDS011;35354;51.296;16.924;2023-05-21T02:58:42;14.52;;;12.95;;
49458;SDS011;35354;51.296;16.924;2023-05-21T03:01:08;16.73;;;13.10;;
49458;SDS011;35354;51.296;16.924;2023-05-21T03:03:33;14.40;;;12.90;;
49458;SDS011;35354;51.296;16.924;2023-05-21T03:05:58;14.32;;;12.82;;
49458;SDS011;35354;51.296;16.924;2023-05-21T03:08:24;14.10;;;12.63;;
49458;SDS011;35354;51.296;16.924;2023-05-21T03:10:50;14.27;;;12.68;;
49458;SDS011;35354;51.296;16.924;2023-05-21T03:13:15;16.17;;;12.90;;
49458;SDS011;35354;51.296;16.924;2023-05-21T03:15:41;17.48;;;12.57;;
49458;SDS011;35354;51.296;16.924;2023-05-21T03:18:07;13.95;;;12.02;;
49458;SDS011;35354;51.296;16.924;2023-05-21T03:20:33;15.02;;;12.95;;
49458;SDS011;35354;51.296;16.924;2023-05-21T03:22:59;14.10;;;12.60;;
49458;SDS011;35354;51.296;16.924;2023-05-21T03:25:24;14.13;;;12.70;;
49458;SDS011;35354;51.296;16.924;2023-05-21T03:27:50;14.30;;;12.82;;
49458;SDS011;35354;51.296;16.924;2023-05-21T03:30:16;13.07;;;11.75;;
49458;SDS011;35354;51.296;16.924;2023-05-21T03:32:41;13.98;;;12.02;;
49458;SDS011;35354;51.296;16.924;2023-05-21T03:35:09;14.07;;;11.85;;
49458;SDS011;35354;51.296;16.924;2023-05-21T03:37:34;14.30;;;12.77;;
49458;SDS011;35354;51.296;16.924;2023-05-21T03:39:59;14.57;;;11.27;;
49458;SDS011;35354;51.296;16.924;2023-05-21T03:42:25;14.95;;;12.57;;
49458;SDS011;35354;51.296;16.924;2023-05-21T03:44:50;14.02;;;12.70;;
49458;SDS011;35354;51.296;16.924;2023-05-21T03:47:15;13.85;;;12.18;;
49458;SDS011;35354;51.296;16.924;2023-05-21T03:49:41;13.02;;;11.70;;
49458;SDS011;35354;51.296;16.924;2023-05-21T03:52:06;13.32;;;12.00;;
49458;SDS011;35354;51.296;16.924;2023-05-21T03:54:31;14.65;;;12.55;;
49458;SDS011;35354;51.296;16.924;2023-05-21T03:56:57;12.95;;;11.70;;
49458;SDS011;35354;51.296;16.924;2023-05-21T03:59:22;15.52;;;12.55;;
49458;SDS011;35354;51.296;16.924;2023-05-21T04:01:47;15.35;;;12.85;;
49458;SDS011;35354;51.296;16.924;2023-05-21T04:04:13;15.02;;;13.48;;
49458;SDS011;35354;51.296;16.924;2023-05-21T04:06:38;15.25;;;13.25;;
49458;SDS011;35354;51.296;16.924;2023-05-21T04:09:06;17.35;;;13.40;;
49458;SDS011;35354;51.296;16.924;2023-05-21T04:11:31;13.25;;;11.57;;
49458;SDS011;35354;51.296;16.924;2023-05-21T04:13:57;15.88;;;14.18;;
49458;SDS011;35354;51.296;16.924;2023-05-21T04:16:22;29.48;;;25.88;;
49458;SDS011;35354;51.296;16.924;2023-05-21T04:18:48;18.42;;;16.60;;
49458;SDS011;35354;51.296;16.924;2023-05-21T04:21:13;14.45;;;12.98;;
49458;SDS011;35354;51.296;16.924;2023-05-21T04:23:39;15.00;;;13.35;;
49458;SDS011;35354;51.296;16.924;2023-05-21T04:26:04;16.65;;;14.65;;
49458;SDS011;35354;51.296;16.924;2023-05-21T04:28:30;12.93;;;11.63;;
49458;SDS011;35354;51.296;16.924;2023-05-21T04:30:55;13.20;;;11.90;;
49458;SDS011;35354;51.296;16.924;2023-05-21T04:33:23;14.70;;;12.25;;
49458;SDS011;35354;51.296;16.924;2023-05-21T04:35:50;14.88;;;12.90;;
49458;SDS011;35354;51.296;16.924;2023-05-21T04:38:18;12.50;;;11.20;;
49458;SDS011;35354;51.296;16.924;2023-05-21T04:40:53;13.38;;;12.07;;
49458;SDS011;35354;51.296;16.924;2023-05-21T04:43:19;14.80;;;12.15;;
49458;SDS011;35354;51.296;16.924;2023-05-21T04:45:50;14.85;;;13.07;;
49458;SDS011;35354;51.296;16.924;2023-05-21T04:48:15;14.15;;;11.63;;
49458;SDS011;35354;51.296;16.924;2023-05-21T04:50:41;12.57;;;11.27;;
49458;SDS011;35354;51.296;16.924;2023-05-21T04:53:07;12.70;;;11.48;;
49458;SDS011;35354;51.296;16.924;2023-05-21T04:55:32;12.18;;;10.98;;
49458;SDS011;35354;51.296;16.924;2023-05-21T04:58:00;12.10;;;10.90;;
49458;SDS011;35354;51.296;16.924;2023-05-21T05:00:25;13.45;;;12.05;;
49458;SDS011;35354;51.296;16.924;2023-05-21T05:02:51;12.52;;;11.23;;
49458;SDS011;35354;51.296;16.924;2023-05-21T05:05:17;12.38;;;11.07;;
49458;SDS011;35354;51.296;16.924;2023-05-21T05:07:42;13.07;;;11.13;;
49458;SDS011;35354;51.296;16.924;2023-05-21T05:10:08;12.18;;;11.07;;
49458;SDS011;35354;51.296;16.924;2023-05-21T05:12:33;12.70;;;11.48;;
49458;SDS011;35354;51.296;16.924;2023-05-21T05:14:59;11.57;;;10.25;;
49458;SDS011;35354;51.296;16.924;2023-05-21T05:17:24;12.60;;;11.20;;
49458;SDS011;35354;51.296;16.924;2023-05-21T05:19:49;12.45;;;11.27;;
49458;SDS011;35354;51.296;16.924;2023-05-21T05:22:15;12.15;;;11.07;;
49458;SDS011;35354;51.296;16.924;2023-05-21T05:24:40;12.55;;;11.35;;
49458;SDS011;35354;51.296;16.924;2023-05-21T05:27:05;12.98;;;10.40;;
49458;SDS011;35354;51.296;16.924;2023-05-21T05:29:31;11.45;;;10.02;;
49458;SDS011;35354;51.296;16.924;2023-05-21T05:31:56;10.75;;;9.50;;
49458;SDS011;35354;51.296;16.924;2023-05-21T05:34:21;15.27;;;10.48;;
49458;SDS011;35354;51.296;16.924;2023-05-21T05:36:47;10.18;;;9.05;;
49458;SDS011;35354;51.296;16.924;2023-05-21T05:39:12;11.52;;;10.32;;
49458;SDS011;35354;51.296;16.924;2023-05-21T05:41:37;12.23;;;9.35;;
49458;SDS011;35354;51.296;16.924;2023-05-21T05:44:03;12.20;;;11.10;;
49458;SDS011;35354;51.296;16.924;2023-05-21T05:46:28;10.88;;;9.88;;
49458;SDS011;35354;51.296;16.924;2023-05-21T05:48:53;11.80;;;10.35;;
49458;SDS011;35354;51.296;16.924;2023-05-21T05:51:19;10.73;;;9.73;;
49458;SDS011;35354;51.296;16.924;2023-05-21T05:53:44;12.65;;;9.57;;
49458;SDS011;35354;51.296;16.924;2023-05-21T05:56:10;15.48;;;10.77;;
49458;SDS011;35354;51.296;16.924;2023-05-21T05:58:35;12.02;;;10.35;;
49458;SDS011;35354;51.296;16.924;2023-05-21T06:01:00;14.63;;;9.98;;
49458;SDS011;35354;51.296;16.924;2023-05-21T06:03:26;10.93;;;9.68;;
49458;SDS011;35354;51.296;16.924;2023-05-21T06:05:52;10.23;;;9.23;;
49458;SDS011;35354;51.296;16.924;2023-05-21T06:08:17;12.40;;;11.20;;
49458;SDS011;35354;51.296;16.924;2023-05-21T06:10:43;10.40;;;8.98;;
49458;SDS011;35354;51.296;16.924;2023-05-21T06:13:08;10.27;;;9.15;;
49458;SDS011;35354;51.296;16.924;2023-05-21T06:15:33;10.35;;;9.30;;
49458;SDS011;35354;51.296;16.924;2023-05-21T06:17:59;10.13;;;9.13;;
49458;SDS011;35354;51.296;16.924;2023-05-21T06:20:24;10.75;;;9.68;;
49458;SDS011;35354;51.296;16.924;2023-05-21T06:22:50;10.27;;;9.07;;
49458;SDS011;35354;51.296;16.924;2023-05-21T06:25:15;10.35;;;9.32;;
49458;SDS011;35354;51.296;16.924;2023-05-21T06:27:40;10.32;;;9.23;;
49458;SDS011;35354;51.296;16.924;2023-05-21T06:30:06;8.90;;;8.10;;
49458;SDS011;35354;51.296;16.924;2023-05-21T06:32:32;9.40;;;8.43;;
49458;SDS011;35354;51.296;16.924;2023-05-21T06:34:58;10.63;;;9.43;;
49458;SDS011;35354;51.296;16.924;2023-05-21T06:37:23;9.10;;;8.15;;
49458;SDS011;35354;51.296;16.924;2023-05-21T06:39:48;10.18;;;9.18;;
49458;SDS011;35354;51.296;16.924;2023-05-21T06:42:14;9.60;;;8.70;;
49458;SDS011;35354;51.296;16.924;2023-05-21T06:44:39;9.32;;;8.38;;
49458;SDS011;35354;51.296;16.924;2023-05-21T06:47:05;10.60;;;9.57;;
49458;SDS011;35354;51.296;16.924;2023-05-21T06:49:30;10.00;;;9.00;;
49458;SDS011;35354;51.296;16.924;2023-05-21T06:51:56;10.48;;;9.38;;
49458;SDS011;35354;51.296;16.924;2023-05-21T06:54:21;10.48;;;9.32;;
49458;SDS011;35354;51.296;16.924;2023-05-21T06:56:46;9.43;;;8.38;;
49458;SDS011;35354;51.296;16.924;2023-05-21T06:59:12;9.75;;;8.73;;
49458;SDS011;35354;51.296;16.924;2023-05-21T07:01:37;9.98;;;8.57;;
49458;SDS011;35354;51.296;16.924;2023-05-21T07:04:06;9.00;;;8.20;;
49458;SDS011;35354;51.296;16.924;2023-05-21T07:06:31;10.68;;;8.50;;
49458;SDS011;35354;51.296;16.924;2023-05-21T07:08:57;9.35;;;8.23;;
49458;SDS011;35354;51.296;16.924;2023-05-21T07:11:22;9.35;;;8.20;;
49458;SDS011;35354;51.296;16.924;2023-05-21T07:13:52;9.75;;;8.77;;
49458;SDS011;35354;51.296;16.924;2023-05-21T07:16:18;9.38;;;8.48;;
49458;SDS011;35354;51.296;16.924;2023-05-21T07:18:44;9.50;;;8.70;;
49458;SDS011;35354;51.296;16.924;2023-05-21T07:21:09;9.25;;;8.45;;
49458;SDS011;35354;51.296;16.924;2023-05-21T07:23:34;9.15;;;8.35;;
49458;SDS011;35354;51.296;16.924;2023-05-21T07:26:00;14.73;;;13.18;;
49458;SDS011;35354;51.296;16.924;2023-05-21T07:28:25;9.48;;;8.55;;
49458;SDS011;35354;51.296;16.924;2023-05-21T07:30:50;8.60;;;7.80;;
49458;SDS011;35354;51.296;16.924;2023-05-21T07:33:16;9.68;;;8.68;;
49458;SDS011;35354;51.296;16.924;2023-05-21T07:35:43;10.07;;;8.38;;
49458;SDS011;35354;51.296;16.924;2023-05-21T07:38:08;9.45;;;8.55;;
49458;SDS011;35354;51.296;16.924;2023-05-21T07:40:34;9.50;;;8.60;;
49458;SDS011;35354;51.296;16.924;2023-05-21T07:42:59;9.75;;;8.85;;
49458;SDS011;35354;51.296;16.924;2023-05-21T07:45:24;9.30;;;8.40;;
49458;SDS011;35354;51.296;16.924;2023-05-21T07:47:50;10.15;;;9.02;;
49458;SDS011;35354;51.296;16.924;2023-05-21T07:50:15;9.38;;;8.55;;
49458;SDS011;35354;51.296;16.924;2023-05-21T07:52:40;10.05;;;9.15;;
49458;SDS011;35354;51.296;16.924;2023-05-21T07:55:07;11.35;;;10.23;;
49458;SDS011;35354;51.296;16.924;2023-05-21T07:57:32;12.25;;;9.75;;
49458;SDS011;35354;51.296;16.924;2023-05-21T07:59:59;9.77;;;8.90;;
49458;SDS011;35354;51.296;16.924;2023-05-21T08:02:24;9.90;;;8.55;;
49458;SDS011;35354;51.296;16.924;2023-05-21T08:04:50;9.45;;;8.45;;
49458;SDS011;35354;51.296;16.924;2023-05-21T08:07:16;8.80;;;8.05;;
49458;SDS011;35354;51.296;16.924;2023-05-21T08:09:43;8.18;;;7.43;;
49458;SDS011;35354;51.296;16.924;2023-05-21T08:12:09;9.85;;;8.35;;
49458;SDS011;35354;51.296;16.924;2023-05-21T08:14:38;8.10;;;7.35;;
49458;SDS011;35354;51.296;16.924;2023-05-21T08:17:03;9.05;;;7.68;;
49458;SDS011;35354;51.296;16.924;2023-05-21T08:19:29;8.25;;;7.45;;
49458;SDS011;35354;51.296;16.924;2023-05-21T08:21:55;9.20;;;8.30;;
49458;SDS011;35354;51.296;16.924;2023-05-21T08:24:20;8.90;;;8.10;;
49458;SDS011;35354;51.296;16.924;2023-05-21T08:26:45;9.57;;;7.55;;
49458;SDS011;35354;51.296;16.924;2023-05-21T08:29:13;9.27;;;8.07;;
49458;SDS011;35354;51.296;16.924;2023-05-21T08:31:38;11.15;;;7.88;;
49458;SDS011;35354;51.296;16.924;2023-05-21T08:34:04;7.82;;;7.03;;
49458;SDS011;35354;51.296;16.924;2023-05-21T08:36:30;9.93;;;7.88;;
49458;SDS011;35354;51.296;16.924;2023-05-21T08:38:55;7.70;;;7.00;;
49458;SDS011;35354;51.296;16.924;2023-05-21T08:41:21;8.25;;;6.88;;
49458;SDS011;35354;51.296;16.924;2023-05-21T08:43:47;9.68;;;6.50;;
49458;SDS011;35354;51.296;16.924;2023-05-21T08:46:19;7.55;;;6.53;;
49458;SDS011;35354;51.296;16.924;2023-05-21T08:48:49;7.45;;;6.05;;
49458;SDS011;35354;51.296;16.924;2023-05-21T08:51:18;7.43;;;6.72;;
49458;SDS011;35354;51.296;16.924;2023-05-21T08:53:45;7.15;;;5.90;;
49458;SDS011;35354;51.296;16.924;2023-05-21T08:56:10;7.80;;;6.10;;
49458;SDS011;35354;51.296;16.924;2023-05-21T08:58:37;8.98;;;6.47;;
49458;SDS011;35354;51.296;16.924;2023-05-21T09:01:06;12.68;;;6.57;;
49458;SDS011;35354;51.296;16.924;2023-05-21T09:03:32;10.13;;;7.00;;
49458;SDS011;35354;51.296;16.924;2023-05-21T09:05:58;8.35;;;6.00;;
49458;SDS011;35354;51.296;16.924;2023-05-21T09:08:26;8.90;;;6.28;;
49458;SDS011;35354;51.296;16.924;2023-05-21T09:10:56;13.05;;;6.43;;
49458;SDS011;35354;51.296;16.924;2023-05-21T09:13:22;8.23;;;5.47;;
49458;SDS011;35354;51.296;16.924;2023-05-21T09:15:50;10.48;;;5.95;;
49458;SDS011;35354;51.296;16.924;2023-05-21T09:18:15;6.45;;;5.68;;
49458;SDS011;35354;51.296;16.924;2023-05-21T09:20:41;6.53;;;5.43;;
49458;SDS011;35354;51.296;16.924;2023-05-21T09:23:08;7.95;;;5.80;;
49458;SDS011;35354;51.296;16.924;2023-05-21T09:25:41;5.50;;;5.00;;
49458;SDS011;35354;51.296;16.924;2023-05-21T09:28:13;7.00;;;5.47;;
49458;SDS011;35354;51.296;16.924;2023-05-21T09:30:46;6.10;;;5.50;;
49458;SDS011;35354;51.296;16.924;2023-05-21T09:33:12;6.20;;;5.60;;
49458;SDS011;35354;51.296;16.924;2023-05-21T09:35:49;6.05;;;5.25;;
49458;SDS011;35354;51.296;16.924;2023-05-21T09:38:15;7.03;;;5.00;;
49458;SDS011;35354;51.296;16.924;2023-05-21T09:40:44;8.25;;;5.60;;
49458;SDS011;35354;51.296;16.924;2023-05-21T09:43:13;7.68;;;5.65;;
49458;SDS011;35354;51.296;16.924;2023-05-21T09:45:48;7.15;;;5.07;;
49458;SDS011;35354;51.296;16.924;2023-05-21T09:48:34;7.95;;;5.10;;
49458;SDS011;35354;51.296;16.924;2023-05-21T09:51:08;6.43;;;4.88;;
49458;SDS011;35354;51.296;16.924;2023-05-21T09:53:50;10.20;;;5.55;;
49458;SDS011;35354;51.296;16.924;2023-05-21T09:56:20;9.07;;;5.60;;
49458;SDS011;35354;51.296;16.924;2023-05-21T09:58:50;6.57;;;5.93;;
49458;SDS011;35354;51.296;16.924;2023-05-21T10:01:17;6.05;;;5.45;;
49458;SDS011;35354;51.296;16.924;2023-05-21T10:03:43;6.03;;;5.30;;
49458;SDS011;35354;51.296;16.924;2023-05-21T10:06:15;7.65;;;5.13;;
49458;SDS011;35354;51.296;16.924;2023-05-21T10:08:43;8.07;;;5.68;;
49458;SDS011;35354;51.296;16.924;2023-05-21T10:11:12;6.57;;;4.95;;
49458;SDS011;35354;51.296;16.924;2023-05-21T10:13:40;8.05;;;4.93;;
49458;SDS011;35354;51.296;16.924;2023-05-21T10:16:10;6.13;;;4.88;;
49458;SDS011;35354;51.296;16.924;2023-05-21T10:18:36;7.18;;;5.20;;
49458;SDS011;35354;51.296;16.924;2023-05-21T10:21:03;6.47;;;4.88;;
49458;SDS011;35354;51.296;16.924;2023-05-21T10:23:31;8.90;;;5.03;;
49458;SDS011;35354;51.296;16.924;2023-05-21T10:25:58;7.15;;;5.30;;
49458;SDS011;35354;51.296;16.924;2023-05-21T10:28:24;5.35;;;4.80;;
49458;SDS011;35354;51.296;16.924;2023-05-21T10:30:50;6.40;;;4.90;;
49458;SDS011;35354;51.296;16.924;2023-05-21T10:33:17;6.10;;;4.53;;
49458;SDS011;35354;51.296;16.924;2023-05-21T10:35:45;5.88;;;4.18;;
49458;SDS011;35354;51.296;16.924;2023-05-21T10:38:12;7.35;;;4.60;;
49458;SDS011;35354;51.296;16.924;2023-05-21T10:40:37;6.68;;;4.32;;
49458;SDS011;35354;51.296;16.924;2023-05-21T10:54:46;5.38;;;4.45;;
49458;SDS011;35354;51.296;16.924;2023-05-21T11:00:10;6.55;;;4.80;;
49458;SDS011;35354;51.296;16.924;2023-05-21T11:02:40;5.70;;;4.95;;
49458;SDS011;35354;51.296;16.924;2023-05-21T11:05:06;5.03;;;4.53;;
49458;SDS011;35354;51.296;16.924;2023-05-21T11:10:43;8.68;;;5.18;;
49458;SDS011;35354;51.296;16.924;2023-05-21T11:13:11;7.40;;;4.70;;
49458;SDS011;35354;51.296;16.924;2023-05-21T11:21:03;5.97;;;4.20;;
49458;SDS011;35354;51.296;16.924;2023-05-21T11:26:24;6.20;;;5.50;;
49458;SDS011;35354;51.296;16.924;2023-05-21T11:31:28;8.60;;;5.78;;
49458;SDS011;35354;51.296;16.924;2023-05-21T11:34:10;5.97;;;4.43;;
49458;SDS011;35354;51.296;16.924;2023-05-21T11:36:39;4.82;;;4.18;;
49458;SDS011;35354;51.296;16.924;2023-05-21T11:39:09;6.00;;;4.35;;
49458;SDS011;35354;51.296;16.924;2023-05-21T11:41:48;7.47;;;4.18;;
49458;SDS011;35354;51.296;16.924;2023-05-21T11:44:19;6.50;;;4.55;;
49458;SDS011;35354;51.296;16.924;2023-05-21T11:47:01;5.05;;;4.47;;
49458;SDS011;35354;51.296;16.924;2023-05-21T11:49:28;6.03;;;4.40;;
49458;SDS011;35354;51.296;16.924;2023-05-21T11:51:54;5.05;;;4.65;;
49458;SDS011;35354;51.296;16.924;2023-05-21T11:54:20;5.35;;;4.55;;
49458;SDS011;35354;51.296;16.924;2023-05-21T11:56:47;7.55;;;5.03;;
49458;SDS011;35354;51.296;16.924;2023-05-21T11:59:13;6.50;;;4.82;;
49458;SDS011;35354;51.296;16.924;2023-05-21T12:01:40;4.97;;;4.53;;
49458;SDS011;35354;51.296;16.924;2023-05-21T12:04:07;8.20;;;4.78;;
49458;SDS011;35354;51.296;16.924;2023-05-21T12:06:32;5.53;;;4.68;;
49458;SDS011;35354;51.296;16.924;2023-05-21T12:08:58;5.32;;;4.93;;
49458;SDS011;35354;51.296;16.924;2023-05-21T12:11:23;5.10;;;4.60;;
49458;SDS011;35354;51.296;16.924;2023-05-21T12:13:51;7.00;;;5.00;;
49458;SDS011;35354;51.296;16.924;2023-05-21T12:16:16;7.22;;;4.65;;
49458;SDS011;35354;51.296;16.924;2023-05-21T12:18:42;6.80;;;5.03;;
49458;SDS011;35354;51.296;16.924;2023-05-21T12:21:07;5.00;;;4.60;;
49458;SDS011;35354;51.296;16.924;2023-05-21T12:23:32;6.90;;;4.97;;
49458;SDS011;35354;51.296;16.924;2023-05-21T12:25:58;9.02;;;5.68;;
49458;SDS011;35354;51.296;16.924;2023-05-21T12:28:23;6.30;;;4.38;;
49458;SDS011;35354;51.296;16.924;2023-05-21T12:30:49;6.25;;;4.88;;
49458;SDS011;35354;51.296;16.924;2023-05-21T12:33:15;6.97;;;5.57;;
49458;SDS011;35354;51.296;16.924;2023-05-21T12:35:44;6.40;;;5.65;;
49458;SDS011;35354;51.296;16.924;2023-05-21T12:38:15;8.48;;;6.88;;
49458;SDS011;35354;51.296;16.924;2023-05-21T12:40:40;6.82;;;6.22;;
49458;SDS011;35354;51.296;16.924;2023-05-21T12:43:07;7.15;;;4.53;;
49458;SDS011;35354;51.296;16.924;2023-05-21T12:45:33;5.18;;;4.63;;
49458;SDS011;35354;51.296;16.924;2023-05-21T12:48:01;5.18;;;4.78;;
49458;SDS011;35354;51.296;16.924;2023-05-21T12:50:27;9.50;;;4.82;;
49458;SDS011;35354;51.296;16.924;2023-05-21T12:52:53;5.68;;;5.07;;
49458;SDS011;35354;51.296;16.924;2023-05-21T12:55:19;6.70;;;4.38;;
49458;SDS011;35354;51.296;16.924;2023-05-21T12:57:47;6.22;;;4.38;;
49458;SDS011;35354;51.296;16.924;2023-05-21T13:00:12;4.70;;;4.25;;
49458;SDS011;35354;51.296;16.924;2023-05-21T13:02:38;5.20;;;4.65;;
49458;SDS011;35354;51.296;16.924;2023-05-21T13:05:06;4.38;;;3.97;;
49458;SDS011;35354;51.296;16.924;2023-05-21T13:07:36;4.90;;;4.38;;
49458;SDS011;35354;51.296;16.924;2023-05-21T13:10:04;5.85;;;4.60;;
49458;SDS011;35354;51.296;16.924;2023-05-21T13:12:30;5.22;;;4.70;;
49458;SDS011;35354;51.296;16.924;2023-05-21T13:14:57;7.40;;;4.72;;
49458;SDS011;35354;51.296;16.924;2023-05-21T13:17:24;5.15;;;4.22;;
49458;SDS011;35354;51.296;16.924;2023-05-21T13:20:10;6.65;;;4.60;;
49458;SDS011;35354;51.296;16.924;2023-05-21T13:22:40;6.50;;;4.57;;
49458;SDS011;35354;51.296;16.924;2023-05-21T13:25:13;4.90;;;4.50;;
49458;SDS011;35354;51.296;16.924;2023-05-21T13:27:41;4.93;;;4.43;;
49458;SDS011;35354;51.296;16.924;2023-05-21T13:30:07;4.90;;;3.95;;
49458;SDS011;35354;51.296;16.924;2023-05-21T13:32:34;6.53;;;4.30;;
49458;SDS011;35354;51.296;16.924;2023-05-21T13:35:00;6.25;;;4.80;;
49458;SDS011;35354;51.296;16.924;2023-05-21T13:37:25;5.50;;;4.00;;
49458;SDS011;35354;51.296;16.924;2023-05-21T13:39:51;5.07;;;4.53;;
49458;SDS011;35354;51.296;16.924;2023-05-21T13:42:16;4.88;;;4.25;;
49458;SDS011;35354;51.296;16.924;2023-05-21T13:44:42;8.65;;;4.47;;
49458;SDS011;35354;51.296;16.924;2023-05-21T13:47:07;6.57;;;4.30;;
49458;SDS011;35354;51.296;16.924;2023-05-21T13:49:34;5.38;;;4.07;;
49458;SDS011;35354;51.296;16.924;2023-05-21T13:52:00;6.80;;;4.32;;
49458;SDS011;35354;51.296;16.924;2023-05-21T13:54:26;10.15;;;4.50;;
49458;SDS011;35354;51.296;16.924;2023-05-21T13:56:52;5.45;;;4.80;;
49458;SDS011;35354;51.296;16.924;2023-05-21T13:59:17;5.38;;;4.28;;
49458;SDS011;35354;51.296;16.924;2023-05-21T14:01:43;5.15;;;4.75;;
49458;SDS011;35354;51.296;16.924;2023-05-21T14:04:09;6.47;;;4.57;;
49458;SDS011;35354;51.296;16.924;2023-05-21T14:06:38;4.43;;;3.97;;
49458;SDS011;35354;51.296;16.924;2023-05-21T14:09:05;5.88;;;4.18;;
49458;SDS011;35354;51.296;16.924;2023-05-21T14:11:31;5.43;;;4.55;;
49458;SDS011;35354;51.296;16.924;2023-05-21T14:13:56;5.20;;;4.40;;
49458;SDS011;35354;51.296;16.924;2023-05-21T14:16:22;4.85;;;4.35;;
49458;SDS011;35354;51.296;16.924;2023-05-21T14:18:54;5.45;;;4.47;;
49458;SDS011;35354;51.296;16.924;2023-05-21T14:21:21;7.43;;;3.83;;
49458;SDS011;35354;51.296;16.924;2023-05-21T14:23:46;5.03;;;4.25;;
49458;SDS011;35354;51.296;16.924;2023-05-21T14:26:13;4.32;;;3.92;;
49458;SDS011;35354;51.296;16.924;2023-05-21T14:28:38;5.13;;;4.43;;
49458;SDS011;35354;51.296;16.924;2023-05-21T14:31:04;7.95;;;4.30;;
49458;SDS011;35354;51.296;16.924;2023-05-21T14:33:30;4.75;;;4.15;;
49458;SDS011;35354;51.296;16.924;2023-05-21T14:35:55;4.60;;;4.13;;
49458;SDS011;35354;51.296;16.924;2023-05-21T14:38:21;6.68;;;4.38;;
49458;SDS011;35354;51.296;16.924;2023-05-21T14:40:46;5.10;;;4.70;;
49458;SDS011;35354;51.296;16.924;2023-05-21T14:43:11;5.85;;;4.13;;
49458;SDS011;35354;51.296;16.924;2023-05-21T14:45:37;5.72;;;4.15;;
49458;SDS011;35354;51.296;16.924;2023-05-21T14:48:02;5.25;;;4.57;;
49458;SDS011;35354;51.296;16.924;2023-05-21T14:50:32;4.47;;;4.10;;
49458;SDS011;35354;51.296;16.924;2023-05-21T14:53:02;7.05;;;4.68;;